sensor_id;sensor_type;location;lat;lon;timestamp;temperature;humidity
44190;DHT22;29856;52.144;5.430;2023-04-01T00:00:13;11.50;99.90
44190;DHT22;29856;52.144;5.430;2023-04-01T00:02:39;11.40;99.90
44190;DHT22;29856;52.144;5.430;2023-04-01T00:05:05;11.50;99.90
44190;DHT22;29856;52.144;5.430;2023-04-01T00:07:31;11.50;99.90
44190;DHT22;29856;52.144;5.430;2023-04-01T00:09:56;11.50;99.90
44190;DHT22;29856;52.144;5.430;2023-04-01T00:12:22;11.50;99.90
44190;DHT22;29856;52.144;5.430;2023-04-01T00:14:47;11.50;99.90
44190;DHT22;29856;52.144;5.430;2023-04-01T00:17:13;11.50;99.90
44190;DHT22;29856;52.144;5.430;2023-04-01T00:19:38;11.60;99.90
44190;DHT22;29856;52.144;5.430;2023-04-01T00:22:04;11.60;99.90
44190;DHT22;29856;52.144;5.430;2023-04-01T00:24:31;11.60;99.90
44190;DHT22;29856;52.144;5.430;2023-04-01T00:26:56;11.60;99.90
44190;DHT22;29856;52.144;5.430;2023-04-01T00:29:22;11.60;99.90
44190;DHT22;29856;52.144;5.430;2023-04-01T00:31:47;11.60;99.90
44190;DHT22;29856;52.144;5.430;2023-04-01T00:34:13;11.50;99.90
44190;DHT22;29856;52.144;5.430;2023-04-01T00:36:38;11.50;99.90
44190;DHT22;29856;52.144;5.430;2023-04-01T00:39:04;11.40;99.90
44190;DHT22;29856;52.144;5.430;2023-04-01T00:41:31;11.30;99.90
44190;DHT22;29856;52.144;5.430;2023-04-01T00:44:20;11.30;99.90
44190;DHT22;29856;52.144;5.430;2023-04-01T00:46:46;11.40;99.90
44190;DHT22;29856;52.144;5.430;2023-04-01T00:49:12;11.30;99.90
44190;DHT22;29856;52.144;5.430;2023-04-01T00:51:39;11.30;99.90
44190;DHT22;29856;52.144;5.430;2023-04-01T00:54:05;11.40;99.90
44190;DHT22;29856;52.144;5.430;2023-04-01T00:56:34;11.30;99.90
44190;DHT22;29856;52.144;5.430;2023-04-01T00:59:04;11.30;99.90
44190;DHT22;29856;52.144;5.430;2023-04-01T01:01:32;11.40;99.90
44190;DHT22;29856;52.144;5.430;2023-04-01T01:03:58;11.40;99.90
44190;DHT22;29856;52.144;5.430;2023-04-01T01:11:50;11.30;99.90
44190;DHT22;29856;52.144;5.430;2023-04-01T01:14:20;11.30;99.90
44190;DHT22;29856;52.144;5.430;2023-04-01T01:16:53;11.30;99.90
44190;DHT22;29856;52.144;5.430;2023-04-01T01:22:40;11.30;99.90
44190;DHT22;29856;52.144;5.430;2023-04-01T01:27:54;11.30;99.90
44190;DHT22;29856;52.144;5.430;2023-04-01T01:30:25;11.30;99.90
44190;DHT22;29856;52.144;5.430;2023-04-01T01:33:07;11.30;99.90
44190;DHT22;29856;52.144;5.430;2023-04-01T01:35:39;11.20;99.90
44190;DHT22;29856;52.144;5.430;2023-04-01T01:38:15;11.20;99.90
44190;DHT22;29856;52.144;5.430;2023-04-01T01:40:44;11.20;99.90
44190;DHT22;29856;52.144;5.430;2023-04-01T01:43:14;11.20;99.90
44190;DHT22;29856;52.144;5.430;2023-04-01T01:45:46;11.20;99.90
44190;DHT22;29856;52.144;5.430;2023-04-01T01:48:13;11.20;99.90
44190;DHT22;29856;52.144;5.430;2023-04-01T01:50:41;11.20;99.90
44190;DHT22;29856;52.144;5.430;2023-04-01T01:53:11;11.20;99.90
44190;DHT22;29856;52.144;5.430;2023-04-01T01:55:40;11.20;99.90
44190;DHT22;29856;52.144;5.430;2023-04-01T01:58:20;11.10;99.90
44190;DHT22;29856;52.144;5.430;2023-04-01T02:01:00;11.10;99.90
44190;DHT22;29856;52.144;5.430;2023-04-01T02:03:28;11.10;99.90
44190;DHT22;29856;52.144;5.430;2023-04-01T02:05:56;11.00;99.90
44190;DHT22;29856;52.144;5.430;2023-04-01T02:08:28;11.00;99.90
44190;DHT22;29856;52.144;5.430;2023-04-01T02:11:03;11.00;99.90
44190;DHT22;29856;52.144;5.430;2023-04-01T02:13:36;11.00;99.90
44190;DHT22;29856;52.144;5.430;2023-04-01T02:16:07;11.00;99.90
44190;DHT22;29856;52.144;5.430;2023-04-01T02:18:36;11.00;99.90
44190;DHT22;29856;52.144;5.430;2023-04-01T02:21:04;11.00;99.90
44190;DHT22;29856;52.144;5.430;2023-04-01T02:23:35;11.10;99.90
44190;DHT22;29856;52.144;5.430;2023-04-01T02:26:02;11.10;99.90
44190;DHT22;29856;52.144;5.430;2023-04-01T02:28:30;11.00;99.90
44190;DHT22;29856;52.144;5.430;2023-04-01T02:30:57;11.00;99.90
44190;DHT22;29856;52.144;5.430;2023-04-01T02:33:24;11.00;99.90
44190;DHT22;29856;52.144;5.430;2023-04-01T02:35:50;11.00;99.90
44190;DHT22;29856;52.144;5.430;2023-04-01T02:38:16;11.00;99.90
44190;DHT22;29856;52.144;5.430;2023-04-01T02:40:49;10.90;99.90
44190;DHT22;29856;52.144;5.430;2023-04-01T02:43:16;10.90;99.90
44190;DHT22;29856;52.144;5.430;2023-04-01T02:45:42;10.90;99.90
44190;DHT22;29856;52.144;5.430;2023-04-01T02:48:07;10.90;99.90
44190;DHT22;29856;52.144;5.430;2023-04-01T02:50:33;10.90;99.90
44190;DHT22;29856;52.144;5.430;2023-04-01T02:52:58;10.90;99.90
44190;DHT22;29856;52.144;5.430;2023-04-01T02:55:24;10.90;99.90
44190;DHT22;29856;52.144;5.430;2023-04-01T02:57:49;10.90;99.90
44190;DHT22;29856;52.144;5.430;2023-04-01T03:00:16;10.90;99.90
44190;DHT22;29856;52.144;5.430;2023-04-01T03:02:41;10.90;99.90
44190;DHT22;29856;52.144;5.430;2023-04-01T03:05:07;10.90;99.90
44190;DHT22;29856;52.144;5.430;2023-04-01T03:07:33;10.90;99.90
44190;DHT22;29856;52.144;5.430;2023-04-01T03:09:58;10.90;99.90
44190;DHT22;29856;52.144;5.430;2023-04-01T03:12:24;10.80;99.90
44190;DHT22;29856;52.144;5.430;2023-04-01T03:14:49;10.90;99.90
44190;DHT22;29856;52.144;5.430;2023-04-01T03:17:15;10.90;99.90
44190;DHT22;29856;52.144;5.430;2023-04-01T03:19:40;10.90;99.90
44190;DHT22;29856;52.144;5.430;2023-04-01T03:22:06;10.90;99.90
44190;DHT22;29856;52.144;5.430;2023-04-01T03:24:31;10.90;99.90
44190;DHT22;29856;52.144;5.430;2023-04-01T03:26:57;10.90;99.90
44190;DHT22;29856;52.144;5.430;2023-04-01T03:29:22;10.90;99.90
44190;DHT22;29856;52.144;5.430;2023-04-01T03:31:48;10.90;99.90
44190;DHT22;29856;52.144;5.430;2023-04-01T03:34:13;10.80;99.90
44190;DHT22;29856;52.144;5.430;2023-04-01T03:36:38;10.80;99.90
44190;DHT22;29856;52.144;5.430;2023-04-01T03:39:04;10.80;99.90
44190;DHT22;29856;52.144;5.430;2023-04-01T03:41:30;10.80;99.90
44190;DHT22;29856;52.144;5.430;2023-04-01T03:43:55;10.70;99.90
44190;DHT22;29856;52.144;5.430;2023-04-01T03:46:21;10.70;99.90
44190;DHT22;29856;52.144;5.430;2023-04-01T03:48:46;10.70;99.90
44190;DHT22;29856;52.144;5.430;2023-04-01T03:51:12;10.60;99.90
44190;DHT22;29856;52.144;5.430;2023-04-01T03:53:37;10.60;99.90
44190;DHT22;29856;52.144;5.430;2023-04-01T03:56:07;10.70;99.90
44190;DHT22;29856;52.144;5.430;2023-04-01T03:58:33;10.70;99.90
44190;DHT22;29856;52.144;5.430;2023-04-01T04:00:58;10.70;99.90
44190;DHT22;29856;52.144;5.430;2023-04-01T04:03:24;10.70;99.90
44190;DHT22;29856;52.144;5.430;2023-04-01T04:05:49;10.70;99.90
44190;DHT22;29856;52.144;5.430;2023-04-01T04:08:16;10.70;99.90
44190;DHT22;29856;52.144;5.430;2023-04-01T04:10:43;10.80;99.90
44190;DHT22;29856;52.144;5.430;2023-04-01T04:13:09;10.70;99.90
44190;DHT22;29856;52.144;5.430;2023-04-01T04:15:34;10.70;99.90
44190;DHT22;29856;52.144;5.430;2023-04-01T04:18:00;10.70;99.90
44190;DHT22;29856;52.144;5.430;2023-04-01T04:20:25;10.80;99.90
44190;DHT22;29856;52.144;5.430;2023-04-01T04:22:51;10.80;99.90
44190;DHT22;29856;52.144;5.430;2023-04-01T04:25:17;10.80;99.90
44190;DHT22;29856;52.144;5.430;2023-04-01T04:27:42;10.90;99.90
44190;DHT22;29856;52.144;5.430;2023-04-01T04:30:08;11.00;99.90
44190;DHT22;29856;52.144;5.430;2023-04-01T04:32:34;11.00;99.90
44190;DHT22;29856;52.144;5.430;2023-04-01T04:35:00;10.90;99.90
44190;DHT22;29856;52.144;5.430;2023-04-01T04:37:25;10.90;99.90
44190;DHT22;29856;52.144;5.430;2023-04-01T04:39:51;10.80;99.90
44190;DHT22;29856;52.144;5.430;2023-04-01T04:42:17;10.80;99.90
44190;DHT22;29856;52.144;5.430;2023-04-01T04:44:42;10.90;99.90
44190;DHT22;29856;52.144;5.430;2023-04-01T04:47:08;10.80;99.90
44190;DHT22;29856;52.144;5.430;2023-04-01T04:49:33;10.80;99.90
44190;DHT22;29856;52.144;5.430;2023-04-01T04:51:58;10.90;99.90
44190;DHT22;29856;52.144;5.430;2023-04-01T04:54:24;10.90;99.90
44190;DHT22;29856;52.144;5.430;2023-04-01T04:56:53;10.90;99.90
44190;DHT22;29856;52.144;5.430;2023-04-01T04:59:19;10.90;99.90
44190;DHT22;29856;52.144;5.430;2023-04-01T05:01:44;10.90;99.90
44190;DHT22;29856;52.144;5.430;2023-04-01T05:04:10;10.80;99.90
44190;DHT22;29856;52.144;5.430;2023-04-01T05:06:35;10.80;99.90
44190;DHT22;29856;52.144;5.430;2023-04-01T05:09:01;10.90;99.90
44190;DHT22;29856;52.144;5.430;2023-04-01T05:11:26;10.80;99.90
44190;DHT22;29856;52.144;5.430;2023-04-01T05:13:52;10.70;99.90
44190;DHT22;29856;52.144;5.430;2023-04-01T05:16:19;10.60;99.90
44190;DHT22;29856;52.144;5.430;2023-04-01T05:18:45;10.60;99.90
44190;DHT22;29856;52.144;5.430;2023-04-01T05:21:12;10.50;99.90
44190;DHT22;29856;52.144;5.430;2023-04-01T05:23:38;10.60;99.90
44190;DHT22;29856;52.144;5.430;2023-04-01T05:26:10;10.60;99.90
44190;DHT22;29856;52.144;5.430;2023-04-01T05:28:36;10.60;99.90
44190;DHT22;29856;52.144;5.430;2023-04-01T05:31:02;10.60;99.90
44190;DHT22;29856;52.144;5.430;2023-04-01T05:33:30;10.70;99.90
44190;DHT22;29856;52.144;5.430;2023-04-01T05:35:56;10.50;99.90
44190;DHT22;29856;52.144;5.430;2023-04-01T05:38:23;10.50;99.90
44190;DHT22;29856;52.144;5.430;2023-04-01T05:40:49;10.50;99.90
44190;DHT22;29856;52.144;5.430;2023-04-01T05:43:14;10.40;99.90
44190;DHT22;29856;52.144;5.430;2023-04-01T05:45:39;10.60;99.90
44190;DHT22;29856;52.144;5.430;2023-04-01T05:48:05;10.50;99.90
44190;DHT22;29856;52.144;5.430;2023-04-01T05:50:31;10.60;99.90
44190;DHT22;29856;52.144;5.430;2023-04-01T05:52:56;10.40;99.90
44190;DHT22;29856;52.144;5.430;2023-04-01T05:55:22;10.60;99.90
44190;DHT22;29856;52.144;5.430;2023-04-01T05:57:47;10.60;99.90
44190;DHT22;29856;52.144;5.430;2023-04-01T06:00:16;10.60;99.90
44190;DHT22;29856;52.144;5.430;2023-04-01T06:02:42;10.60;99.90
44190;DHT22;29856;52.144;5.430;2023-04-01T06:05:18;10.70;99.90
44190;DHT22;29856;52.144;5.430;2023-04-01T06:07:44;10.70;99.90
44190;DHT22;29856;52.144;5.430;2023-04-01T06:10:15;10.70;99.90
44190;DHT22;29856;52.144;5.430;2023-04-01T06:13:05;10.70;99.90
44190;DHT22;29856;52.144;5.430;2023-04-01T06:15:41;10.70;99.90
44190;DHT22;29856;52.144;5.430;2023-04-01T06:18:13;10.80;99.90
44190;DHT22;29856;52.144;5.430;2023-04-01T06:23:40;10.60;99.90
44190;DHT22;29856;52.144;5.430;2023-04-01T06:26:24;10.60;99.90
44190;DHT22;29856;52.144;5.430;2023-04-01T06:31:57;10.80;99.90
44190;DHT22;29856;52.144;5.430;2023-04-01T06:34:47;10.80;99.90
44190;DHT22;29856;52.144;5.430;2023-04-01T06:37:17;10.80;99.90
44190;DHT22;29856;52.144;5.430;2023-04-01T06:39:58;10.80;99.90
44190;DHT22;29856;52.144;5.430;2023-04-01T06:43:15;10.80;99.90
44190;DHT22;29856;52.144;5.430;2023-04-01T06:45:40;10.90;99.90
44190;DHT22;29856;52.144;5.430;2023-04-01T06:48:38;10.90;99.90
44190;DHT22;29856;52.144;5.430;2023-04-01T06:51:13;10.80;99.90
44190;DHT22;29856;52.144;5.430;2023-04-01T06:54:00;10.80;99.90
44190;DHT22;29856;52.144;5.430;2023-04-01T06:56:29;10.80;99.90
44190;DHT22;29856;52.144;5.430;2023-04-01T06:59:02;10.80;99.90
44190;DHT22;29856;52.144;5.430;2023-04-01T07:01:57;10.80;99.90
44190;DHT22;29856;52.144;5.430;2023-04-01T07:04:32;10.50;99.90
44190;DHT22;29856;52.144;5.430;2023-04-01T07:07:03;10.70;99.90
44190;DHT22;29856;52.144;5.430;2023-04-01T07:09:34;10.70;99.90
44190;DHT22;29856;52.144;5.430;2023-04-01T07:12:05;10.70;99.90
44190;DHT22;29856;52.144;5.430;2023-04-01T07:14:39;10.70;99.90
44190;DHT22;29856;52.144;5.430;2023-04-01T07:19:42;10.70;99.90
44190;DHT22;29856;52.144;5.430;2023-04-01T07:24:51;10.60;99.90
44190;DHT22;29856;52.144;5.430;2023-04-01T07:27:18;10.60;99.90
44190;DHT22;29856;52.144;5.430;2023-04-01T07:29:43;10.70;99.90
44190;DHT22;29856;52.144;5.430;2023-04-01T07:32:44;10.60;99.90
44190;DHT22;29856;52.144;5.430;2023-04-01T07:35:25;10.70;99.90
44190;DHT22;29856;52.144;5.430;2023-04-01T07:40:45;10.80;99.90
44190;DHT22;29856;52.144;5.430;2023-04-01T07:48:35;10.90;99.90
44190;DHT22;29856;52.144;5.430;2023-04-01T07:51:32;10.70;99.90
44190;DHT22;29856;52.144;5.430;2023-04-01T07:54:18;10.70;99.90
44190;DHT22;29856;52.144;5.430;2023-04-01T08:05:24;10.60;99.90
44190;DHT22;29856;52.144;5.430;2023-04-01T08:10:51;10.60;99.90
44190;DHT22;29856;52.144;5.430;2023-04-01T08:13:38;10.70;99.90
44190;DHT22;29856;52.144;5.430;2023-04-01T08:18:43;10.80;99.90
44190;DHT22;29856;52.144;5.430;2023-04-01T08:21:23;10.80;99.90
44190;DHT22;29856;52.144;5.430;2023-04-01T08:23:52;10.80;99.90
44190;DHT22;29856;52.144;5.430;2023-04-01T08:26:32;10.80;99.90
44190;DHT22;29856;52.144;5.430;2023-04-01T08:29:33;10.70;99.90
44190;DHT22;29856;52.144;5.430;2023-04-01T08:32:08;10.70;99.90
44190;DHT22;29856;52.144;5.430;2023-04-01T08:34:40;10.70;99.90
44190;DHT22;29856;52.144;5.430;2023-04-01T08:39:48;10.90;99.90
44190;DHT22;29856;52.144;5.430;2023-04-01T08:42:23;10.90;99.90
44190;DHT22;29856;52.144;5.430;2023-04-01T09:11:17;11.10;99.90
44190;DHT22;29856;52.144;5.430;2023-04-01T09:13:55;11.00;99.90
44190;DHT22;29856;52.144;5.430;2023-04-01T09:19:48;11.00;99.90
44190;DHT22;29856;52.144;5.430;2023-04-01T09:23:08;10.90;99.90
44190;DHT22;29856;52.144;5.430;2023-04-01T09:26:18;11.00;99.90
44190;DHT22;29856;52.144;5.430;2023-04-01T09:39:40;11.10;99.90
44190;DHT22;29856;52.144;5.430;2023-04-01T09:44:53;11.20;99.90
44190;DHT22;29856;52.144;5.430;2023-04-01T09:47:43;11.30;99.90
44190;DHT22;29856;52.144;5.430;2023-04-01T09:59:15;11.90;99.90
44190;DHT22;29856;52.144;5.430;2023-04-01T10:05:00;11.90;99.90
44190;DHT22;29856;52.144;5.430;2023-04-01T10:08:08;11.90;99.90
44190;DHT22;29856;52.144;5.430;2023-04-01T10:14:04;12.00;99.90
44190;DHT22;29856;52.144;5.430;2023-04-01T10:22:58;12.20;99.90
44190;DHT22;29856;52.144;5.430;2023-04-01T10:28:06;12.20;99.90
44190;DHT22;29856;52.144;5.430;2023-04-01T10:36:43;12.00;99.90
44190;DHT22;29856;52.144;5.430;2023-04-01T11:01:07;11.90;99.90
44190;DHT22;29856;52.144;5.430;2023-04-01T11:18:40;12.10;99.90
44190;DHT22;29856;52.144;5.430;2023-04-01T11:30:05;12.20;99.90
44190;DHT22;29856;52.144;5.430;2023-04-01T11:32:42;12.30;99.90
44190;DHT22;29856;52.144;5.430;2023-04-01T11:41:25;12.40;99.90
44190;DHT22;29856;52.144;5.430;2023-04-01T11:44:22;12.30;99.90
44190;DHT22;29856;52.144;5.430;2023-04-01T11:50:21;12.40;99.90
44190;DHT22;29856;52.144;5.430;2023-04-01T11:58:59;12.40;99.90
44190;DHT22;29856;52.144;5.430;2023-04-01T12:10:05;12.30;99.90
44190;DHT22;29856;52.144;5.430;2023-04-01T12:18:16;12.40;99.90
44190;DHT22;29856;52.144;5.430;2023-04-01T12:20:57;12.40;99.90
44190;DHT22;29856;52.144;5.430;2023-04-01T12:23:45;12.20;99.90
44190;DHT22;29856;52.144;5.430;2023-04-01T12:26:29;12.20;99.90
44190;DHT22;29856;52.144;5.430;2023-04-01T12:34:52;12.40;99.90
44190;DHT22;29856;52.144;5.430;2023-04-01T12:37:26;12.40;99.90
44190;DHT22;29856;52.144;5.430;2023-04-01T12:45:35;12.10;99.90
44190;DHT22;29856;52.144;5.430;2023-04-01T12:48:08;12.10;99.90
44190;DHT22;29856;52.144;5.430;2023-04-01T12:50:46;12.10;99.90
44190;DHT22;29856;52.144;5.430;2023-04-01T12:53:28;12.10;99.90
44190;DHT22;29856;52.144;5.430;2023-04-01T12:55:56;12.00;99.90
44190;DHT22;29856;52.144;5.430;2023-04-01T13:10:06;12.00;99.90
44190;DHT22;29856;52.144;5.430;2023-04-01T13:13:11;12.10;99.90
44190;DHT22;29856;52.144;5.430;2023-04-01T13:21:46;12.10;99.90
44190;DHT22;29856;52.144;5.430;2023-04-01T13:35:24;11.70;99.90
44190;DHT22;29856;52.144;5.430;2023-04-01T13:43:28;11.60;99.90
44190;DHT22;29856;52.144;5.430;2023-04-01T13:46:22;11.70;99.90
44190;DHT22;29856;52.144;5.430;2023-04-01T13:49:21;11.70;99.90
44190;DHT22;29856;52.144;5.430;2023-04-01T14:00:03;11.60;99.90
44190;DHT22;29856;52.144;5.430;2023-04-01T14:08:01;11.70;99.90
44190;DHT22;29856;52.144;5.430;2023-04-01T14:10:43;11.60;99.90
44190;DHT22;29856;52.144;5.430;2023-04-01T14:13:50;11.60;99.90
44190;DHT22;29856;52.144;5.430;2023-04-01T14:16:54;11.60;99.90
44190;DHT22;29856;52.144;5.430;2023-04-01T14:22:32;11.60;99.90
44190;DHT22;29856;52.144;5.430;2023-04-01T14:50:23;11.40;99.90
44190;DHT22;29856;52.144;5.430;2023-04-01T14:53:11;11.40;99.90
44190;DHT22;29856;52.144;5.430;2023-04-01T14:58:13;11.50;99.90
44190;DHT22;29856;52.144;5.430;2023-04-01T15:23:20;11.40;99.90
44190;DHT22;29856;52.144;5.430;2023-04-01T15:34:15;11.40;99.90
44190;DHT22;29856;52.144;5.430;2023-04-01T15:39:42;11.30;99.90
44190;DHT22;29856;52.144;5.430;2023-04-01T15:42:18;11.40;99.90
44190;DHT22;29856;52.144;5.430;2023-04-01T15:48:02;11.30;99.90
44190;DHT22;29856;52.144;5.430;2023-04-01T15:53:26;11.30;99.90
44190;DHT22;29856;52.144;5.430;2023-04-01T16:16:42;11.00;99.90
44190;DHT22;29856;52.144;5.430;2023-04-01T16:21:53;11.00;99.90
44190;DHT22;29856;52.144;5.430;2023-04-01T16:24:44;10.90;99.90
44190;DHT22;29856;52.144;5.430;2023-04-01T16:38:12;10.70;99.90
44190;DHT22;29856;52.144;5.430;2023-04-01T16:40:57;10.70;99.90
44190;DHT22;29856;52.144;5.430;2023-04-01T16:43:35;10.60;99.90
44190;DHT22;29856;52.144;5.430;2023-04-01T16:46:19;10.70;99.90
44190;DHT22;29856;52.144;5.430;2023-04-01T16:59:47;10.50;99.90
44190;DHT22;29856;52.144;5.430;2023-04-01T17:02:15;10.40;99.90
44190;DHT22;29856;52.144;5.430;2023-04-01T17:04:51;10.40;99.90
44190;DHT22;29856;52.144;5.430;2023-04-01T17:07:40;10.40;99.90
44190;DHT22;29856;52.144;5.430;2023-04-01T17:10:44;10.30;99.90
44190;DHT22;29856;52.144;5.430;2023-04-01T17:19:02;10.30;99.90
44190;DHT22;29856;52.144;5.430;2023-04-01T17:26:48;10.30;99.90
44190;DHT22;29856;52.144;5.430;2023-04-01T17:29:26;10.30;99.90
44190;DHT22;29856;52.144;5.430;2023-04-01T17:34:55;10.30;99.90
44190;DHT22;29856;52.144;5.430;2023-04-01T17:43:16;10.20;99.90
44190;DHT22;29856;52.144;5.430;2023-04-01T17:45:57;10.20;99.90
44190;DHT22;29856;52.144;5.430;2023-04-01T17:51:26;10.10;99.90
44190;DHT22;29856;52.144;5.430;2023-04-01T17:59:37;10.10;99.90
44190;DHT22;29856;52.144;5.430;2023-04-01T18:10:38;10.00;99.90
44190;DHT22;29856;52.144;5.430;2023-04-01T18:13:29;10.10;99.90
44190;DHT22;29856;52.144;5.430;2023-04-01T18:16:18;10.00;99.90
44190;DHT22;29856;52.144;5.430;2023-04-01T18:22:16;10.00;99.90
44190;DHT22;29856;52.144;5.430;2023-04-01T18:27:37;9.90;99.90
44190;DHT22;29856;52.144;5.430;2023-04-01T18:30:15;9.90;99.90
44190;DHT22;29856;52.144;5.430;2023-04-01T18:33:00;9.90;99.90
44190;DHT22;29856;52.144;5.430;2023-04-01T18:44:03;9.80;99.90
44190;DHT22;29856;52.144;5.430;2023-04-01T18:46:43;9.80;99.90
44190;DHT22;29856;52.144;5.430;2023-04-01T18:49:21;9.80;99.90
44190;DHT22;29856;52.144;5.430;2023-04-01T18:52:03;9.80;99.90
44190;DHT22;29856;52.144;5.430;2023-04-01T18:54:45;9.80;99.90
44190;DHT22;29856;52.144;5.430;2023-04-01T18:57:15;9.70;99.90
44190;DHT22;29856;52.144;5.430;2023-04-01T19:00:08;9.70;99.90
44190;DHT22;29856;52.144;5.430;2023-04-01T19:05:18;9.70;99.90
44190;DHT22;29856;52.144;5.430;2023-04-01T19:07:51;9.70;99.90
44190;DHT22;29856;52.144;5.430;2023-04-01T19:10:38;9.70;99.90
44190;DHT22;29856;52.144;5.430;2023-04-01T19:21:35;9.60;99.90
44190;DHT22;29856;52.144;5.430;2023-04-01T19:24:53;9.60;99.90
44190;DHT22;29856;52.144;5.430;2023-04-01T19:27:52;9.60;99.90
44190;DHT22;29856;52.144;5.430;2023-04-01T19:33:19;9.50;99.90
44190;DHT22;29856;52.144;5.430;2023-04-01T19:42:07;9.40;99.90
44190;DHT22;29856;52.144;5.430;2023-04-01T19:46:58;9.30;99.90
44190;DHT22;29856;52.144;5.430;2023-04-01T19:49:33;9.30;99.90
44190;DHT22;29856;52.144;5.430;2023-04-01T19:54:53;9.40;99.90
44190;DHT22;29856;52.144;5.430;2023-04-01T19:57:48;9.30;99.90
44190;DHT22;29856;52.144;5.430;2023-04-01T20:00:34;9.20;99.90
44190;DHT22;29856;52.144;5.430;2023-04-01T20:08:18;9.10;99.90
44190;DHT22;29856;52.144;5.430;2023-04-01T20:10:59;9.10;99.90
44190;DHT22;29856;52.144;5.430;2023-04-01T20:13:48;9.00;99.90
44190;DHT22;29856;52.144;5.430;2023-04-01T20:16:17;9.00;99.90
44190;DHT22;29856;52.144;5.430;2023-04-01T20:18:52;9.00;99.90
44190;DHT22;29856;52.144;5.430;2023-04-01T20:26:42;8.90;99.90
44190;DHT22;29856;52.144;5.430;2023-04-01T20:37:37;8.80;99.90
44190;DHT22;29856;52.144;5.430;2023-04-01T20:40:28;8.80;99.90
44190;DHT22;29856;52.144;5.430;2023-04-01T20:43:24;8.80;99.90
44190;DHT22;29856;52.144;5.430;2023-04-01T20:46:20;8.70;99.90
44190;DHT22;29856;52.144;5.430;2023-04-01T20:51:29;8.70;99.90
44190;DHT22;29856;52.144;5.430;2023-04-01T20:54:05;8.70;99.90
44190;DHT22;29856;52.144;5.430;2023-04-01T20:59:22;8.80;99.90
44190;DHT22;29856;52.144;5.430;2023-04-01T21:02:12;8.70;99.90
44190;DHT22;29856;52.144;5.430;2023-04-01T21:04:47;8.70;99.90
44190;DHT22;29856;52.144;5.430;2023-04-01T21:07:31;8.70;99.90
44190;DHT22;29856;52.144;5.430;2023-04-01T21:38:29;8.30;99.90
44190;DHT22;29856;52.144;5.430;2023-04-01T21:41:08;8.20;99.90
44190;DHT22;29856;52.144;5.430;2023-04-01T21:46:20;8.30;99.90
44190;DHT22;29856;52.144;5.430;2023-04-01T21:52:30;8.10;99.90
44190;DHT22;29856;52.144;5.430;2023-04-01T22:00:35;8.10;99.90
44190;DHT22;29856;52.144;5.430;2023-04-01T22:08:53;8.00;99.90
44190;DHT22;29856;52.144;5.430;2023-04-01T22:14:20;7.90;99.90
44190;DHT22;29856;52.144;5.430;2023-04-01T22:17:05;7.90;99.90
44190;DHT22;29856;52.144;5.430;2023-04-01T22:19:59;8.00;99.90
44190;DHT22;29856;52.144;5.430;2023-04-01T22:28:46;8.00;99.90
44190;DHT22;29856;52.144;5.430;2023-04-01T22:31:11;7.90;99.90
44190;DHT22;29856;52.144;5.430;2023-04-01T22:33:50;7.90;99.90
44190;DHT22;29856;52.144;5.430;2023-04-01T22:42:16;7.70;99.90
44190;DHT22;29856;52.144;5.430;2023-04-01T22:52:47;7.70;99.90
44190;DHT22;29856;52.144;5.430;2023-04-01T22:55:22;7.70;99.90
44190;DHT22;29856;52.144;5.430;2023-04-01T22:58:07;7.70;99.90
44190;DHT22;29856;52.144;5.430;2023-04-01T23:00:47;7.70;99.90
44190;DHT22;29856;52.144;5.430;2023-04-01T23:05:57;7.60;99.90
44190;DHT22;29856;52.144;5.430;2023-04-01T23:08:56;7.60;99.90
44190;DHT22;29856;52.144;5.430;2023-04-01T23:11:41;7.60;99.90
44190;DHT22;29856;52.144;5.430;2023-04-01T23:17:10;7.50;99.90
44190;DHT22;29856;52.144;5.430;2023-04-01T23:19:59;7.50;99.90
44190;DHT22;29856;52.144;5.430;2023-04-01T23:22:34;7.50;99.90
44190;DHT22;29856;52.144;5.430;2023-04-01T23:27:56;7.50;99.90
44190;DHT22;29856;52.144;5.430;2023-04-01T23:33:26;7.60;99.90
44190;DHT22;29856;52.144;5.430;2023-04-01T23:38:26;7.40;99.90
44190;DHT22;29856;52.144;5.430;2023-04-01T23:40:53;7.40;99.90
44190;DHT22;29856;52.144;5.430;2023-04-01T23:43:25;7.40;99.90
44190;DHT22;29856;52.144;5.430;2023-04-01T23:45:53;7.50;99.90
44190;DHT22;29856;52.144;5.430;2023-04-01T23:48:24;7.50;99.90
44190;DHT22;29856;52.144;5.430;2023-04-01T23:50:51;7.40;99.90
44190;DHT22;29856;52.144;5.430;2023-04-01T23:53:20;7.40;99.90
44190;DHT22;29856;52.144;5.430;2023-04-01T23:55:48;7.40;99.90
